Terminal Aerodrome Forecast
Issued by NWS

Current Version | Previous Version | Text Only | Print | Product List | Glossary On
Versions: 1 2 3 4 5 6 7 8 9 10 11 12 13 14 15
000 FTUS41 KGYX 271120 TAFPSM TAF KPSM 271120Z 2712/2812 15006KT P6SM FEW250 FM271600 18010G17KT P6SM BKN250 FM272200 19008G17KT P6SM SCT050 BKN100=

USA.gov is the U.S. government's official web portal to all federal, state and local government web resources and services.